Карточка аэропорта UAKK

Внимание!
Информация на этой странице в стадии наполнения.
Если вы не увидели какой-то информации, или заметили неточность - пожалуйста сообщите нам!
Спасибо!
Команда XR-STAFF
Название аэропортаКараганда
Название аэропорта (англ.)Karaganda
Превышение1768 ft. (538.9 m.)
Координаты49°40.302', 73°20.118'
Высота перехода10000
Эшелон переходаby ATC
Коды ответчика0630-0637, 7220-7227
Зона ОрВДНур-Султан РПИ (UACN)
Данные METARUAKK 160800Z 24006MPS 200V270 9999 SCT050CB 24/01 Q1013 NOSIG RMK QFE713/0951
Проноз погоды (TAF)UAKK 160500Z 1606/1706 22006MPS 9999 SCT030 BKN100 TX25/1610Z TN07/1624Z PROB40 TEMPO 1606/1612 24012MPS -TSRA BKN020CB BECMG 1614/1616 18003MPS BECMG 1702/1704 21007MPS TEMPO 1702/1706 22010MPS SCT020CB
NOTAMshow/hide NOTAM
AWOS   TABLE

Информация о ВПП

ВПП Длина ВПП (м.) Покрытие Курс ВПП Частота ILS
053601Железобетон50109.9
233601Железобетон230111.7

Диспетчерские позиции




Спутниковое изображение